Time;durP1;ratioP1;P1;durP2;ratioP2;P2;SDS_P1;SDS_P2;PMS_P1;PMS_P2;Temp;Humidity;BMP_temperature;BMP_pressure;BME280_temperature;BME280_humidity;BME280_pressure;Samples;Min_cycle;Max_cycle;Signal;HPM_P1;HPM_P2
2024/03/31 00:00:45;;;;;;;7.88;1.95;;;;;;;13.64;41.51;93864.69;5012578;28;20018;-71
2024/03/31 00:03:10;;;;;;;6.80;1.92;;;;;;;13.91;40.57;93861.38;5012034;28;20037;-71
2024/03/31 00:05:36;;;;;;;4.80;2.50;;;;;;;14.17;39.88;93858.41;5012133;28;20393;-71
2024/03/31 00:08:01;;;;;;;7.80;2.00;;;;;;;14.28;40.29;93848.00;5012547;28;20580;-71
2024/03/31 00:10:26;;;;;;;9.13;2.20;;;;;;;14.24;40.35;93841.78;5012026;28;20084;-71
2024/03/31 00:12:52;;;;;;;6.95;1.98;;;;;;;13.90;40.81;93849.13;5012549;28;20095;-72
2024/03/31 00:15:17;;;;;;;7.57;1.92;;;;;;;13.52;41.73;93851.25;5012086;28;20039;-72
2024/03/31 00:17:43;;;;;;;7.22;3.20;;;;;;;13.50;41.78;93848.09;5011942;28;20034;-71
2024/03/31 00:20:08;;;;;;;3.42;1.75;;;;;;;13.90;41.29;93848.34;5012097;28;20034;-71
2024/03/31 00:22:34;;;;;;;6.97;1.75;;;;;;;12.85;43.18;93845.09;5012446;28;20034;-72
2024/03/31 00:24:59;;;;;;;7.18;3.35;;;;;;;12.79;43.07;93850.94;5012676;28;20026;-72
2024/03/31 00:27:24;;;;;;;7.75;3.58;;;;;;;12.77;43.23;93850.47;5011975;28;20034;-72
2024/03/31 00:29:50;;;;;;;10.50;2.33;;;;;;;13.01;42.77;93849.81;5012051;28;20148;-71
2024/03/31 00:32:15;;;;;;;9.43;2.25;;;;;;;12.83;43.66;93847.28;5011986;28;20096;-71
2024/03/31 00:34:41;;;;;;;7.57;2.30;;;;;;;13.14;42.88;93854.13;5011988;28;20036;-71
2024/03/31 00:37:06;;;;;;;13.57;2.97;;;;;;;13.42;42.02;93844.44;5012346;28;20115;-71
2024/03/31 00:39:32;;;;;;;6.95;2.10;;;;;;;12.99;42.81;93844.81;5011581;28;20403;-72
2024/03/31 00:41:57;;;;;;;8.20;2.70;;;;;;;13.02;43.03;93851.38;5011565;28;20045;-72
2024/03/31 00:44:22;;;;;;;6.95;2.05;;;;;;;13.18;42.54;93834.44;5011412;28;20045;-72
2024/03/31 00:46:48;;;;;;;7.28;2.30;;;;;;;12.39;43.95;93827.31;5011676;28;20030;-71
2024/03/31 00:49:14;;;;;;;5.13;1.80;;;;;;;13.01;43.04;93837.25;5011713;28;20021;-71
2024/03/31 00:51:39;;;;;;;7.88;2.53;;;;;;;13.27;42.74;93832.47;5012215;28;20032;-72
2024/03/31 00:54:05;;;;;;;7.32;1.92;;;;;;;13.17;42.86;93816.06;5011685;28;20399;-72
2024/03/31 00:56:30;;;;;;;6.88;2.70;;;;;;;13.15;43.26;93818.31;5011768;28;20109;-72
2024/03/31 00:58:56;;;;;;;6.65;2.03;;;;;;;13.41;42.28;93816.16;5011341;28;20056;-72
2024/03/31 01:01:22;;;;;;;6.93;2.70;;;;;;;13.58;41.12;93818.66;5011674;28;20064;-72
2024/03/31 01:03:47;;;;;;;8.10;2.55;;;;;;;13.20;42.41;93820.78;5011915;28;20017;-72
2024/03/31 01:06:12;;;;;;;6.90;2.70;;;;;;;12.87;43.12;93828.75;5011417;28;20033;-71
2024/03/31 01:08:38;;;;;;;11.30;2.30;;;;;;;12.84;42.92;93837.41;5011667;28;20061;-72
2024/03/31 01:11:04;;;;;;;6.13;2.40;;;;;;;12.53;43.59;93840.41;5011396;28;20048;-71
2024/03/31 01:13:31;;;;;;;7.18;2.60;;;;;;;12.80;42.87;93845.28;5011566;28;20721;-72
2024/03/31 01:15:57;;;;;;;5.35;2.70;;;;;;;13.11;43.18;93839.53;5011464;28;20026;-72
2024/03/31 01:18:22;;;;;;;3.30;1.88;;;;;;;12.96;43.20;93858.06;5011207;28;20033;-72
2024/03/31 01:20:48;;;;;;;7.25;2.53;;;;;;;12.97;43.46;93859.59;5011122;28;20084;-72
2024/03/31 01:23:17;;;;;;;3.78;1.88;;;;;;;13.23;42.76;93850.25;5011547;28;20048;-71
2024/03/31 01:25:43;;;;;;;5.93;2.60;;;;;;;13.29;42.35;93861.53;5011269;28;20125;-71
2024/03/31 01:28:08;;;;;;;5.97;2.20;;;;;;;13.29;42.55;93850.84;5012125;28;20097;-72
2024/03/31 01:30:33;;;;;;;6.85;2.30;;;;;;;13.36;42.36;93855.63;5012832;28;20411;-72
2024/03/31 01:32:59;;;;;;;8.35;2.28;;;;;;;13.61;42.17;93863.44;5015040;28;20505;-72
2024/03/31 01:35:25;;;;;;;8.93;2.55;;;;;;;13.24;43.12;93872.41;5015018;28;20038;-71
2024/03/31 01:37:51;;;;;;;8.25;4.03;;;;;;;13.49;42.73;93866.06;5014949;28;20391;-72
2024/03/31 01:40:17;;;;;;;8.43;2.20;;;;;;;13.58;42.10;93864.06;5014720;28;20108;-71
2024/03/31 01:42:44;;;;;;;9.05;2.65;;;;;;;13.65;41.98;93858.19;5015723;28;20055;-71
2024/03/31 01:45:12;;;;;;;6.97;2.60;;;;;;;13.77;41.67;93863.59;5015077;28;20045;-72
2024/03/31 01:47:37;;;;;;;7.00;2.58;;;;;;;13.67;42.21;93856.00;5014933;28;20129;-71
2024/03/31 01:50:03;;;;;;;7.38;2.25;;;;;;;13.58;42.72;93873.97;5014766;28;20460;-71
2024/03/31 01:52:28;;;;;;;13.50;2.90;;;;;;;13.72;42.52;93866.47;5014640;28;22827;-71
2024/03/31 01:54:54;;;;;;;7.43;2.42;;;;;;;13.64;42.64;93862.75;5015165;28;20022;-71
2024/03/31 01:57:19;;;;;;;4.88;1.92;;;;;;;13.73;42.92;93873.38;5014316;28;20457;-72
2024/03/31 01:59:44;;;;;;;12.35;2.40;;;;;;;13.68;42.98;93865.56;5014787;28;20034;-72
2024/03/31 02:02:10;;;;;;;6.30;2.53;;;;;;;13.67;42.96;93867.47;5014554;28;20038;-71
2024/03/31 02:04:35;;;;;;;5.60;2.53;;;;;;;13.71;42.66;93862.22;5014507;28;20411;-72
2024/03/31 02:07:00;;;;;;;7.53;2.50;;;;;;;13.70;42.66;93866.78;5014926;28;20033;-72
2024/03/31 02:09:26;;;;;;;14.38;2.90;;;;;;;13.05;44.18;93874.78;5014374;28;20049;-72
2024/03/31 02:11:51;;;;;;;8.63;2.70;;;;;;;13.12;43.96;93872.34;5014619;28;20034;-72
2024/03/31 02:14:17;;;;;;;7.63;2.35;;;;;;;12.44;45.55;93877.03;5014453;28;20442;-72
2024/03/31 02:16:42;;;;;;;8.90;2.33;;;;;;;12.73;45.22;93877.03;5014101;28;20056;-71
2024/03/31 02:19:07;;;;;;;21.73;3.40;;;;;;;12.83;45.00;93876.66;5015058;28;20387;-72
2024/03/31 02:21:33;;;;;;;6.63;2.42;;;;;;;13.00;44.77;93874.97;5014007;28;20042;-72
2024/03/31 02:23:59;;;;;;;6.80;2.35;;;;;;;12.97;44.39;93872.94;5014060;28;20499;-71
2024/03/31 02:26:24;;;;;;;8.60;2.80;;;;;;;13.04;44.26;93865.19;5013774;28;20499;-71
2024/03/31 02:28:49;;;;;;;10.63;2.55;;;;;;;12.91;44.76;93879.59;5013769;28;20037;-72
2024/03/31 02:31:15;;;;;;;8.98;2.40;;;;;;;13.06;44.36;93879.00;5014291;28;20490;-72
2024/03/31 02:33:40;;;;;;;6.53;2.70;;;;;;;13.07;44.18;93875.22;5014361;28;20022;-72
2024/03/31 02:36:06;;;;;;;7.80;3.22;;;;;;;13.08;44.16;93877.56;5014040;28;20042;-72
2024/03/31 02:38:31;;;;;;;9.40;3.00;;;;;;;13.20;44.19;93884.88;5012579;28;20435;-72
2024/03/31 02:40:56;;;;;;;6.60;2.55;;;;;;;13.31;43.55;93883.34;5013769;28;20057;-71
2024/03/31 02:43:22;;;;;;;4.38;1.92;;;;;;;13.25;43.60;93892.69;5014086;28;20505;-71
2024/03/31 02:45:47;;;;;;;6.75;2.30;;;;;;;13.13;43.81;93885.38;5014419;28;20032;-72
2024/03/31 02:48:13;;;;;;;5.95;2.25;;;;;;;13.03;43.98;93885.78;5013619;28;20410;-72
2024/03/31 02:50:38;;;;;;;8.95;2.45;;;;;;;13.13;43.76;93882.72;5013656;28;20418;-72
2024/03/31 02:53:03;;;;;;;6.43;2.30;;;;;;;13.21;44.07;93891.75;5013733;28;20035;-72
2024/03/31 02:55:29;;;;;;;9.77;4.03;;;;;;;13.26;43.92;93902.22;5013619;28;20468;-71
2024/03/31 02:57:54;;;;;;;5.65;2.28;;;;;;;13.16;43.75;93894.63;5014295;28;20502;-72
2024/03/31 03:00:19;;;;;;;9.75;2.10;;;;;;;13.09;43.59;93884.47;5013333;28;20100;-72
2024/03/31 03:02:45;;;;;;;10.48;2.55;;;;;;;13.21;43.67;93897.88;5013669;28;20034;-72
2024/03/31 03:05:10;;;;;;;9.13;2.67;;;;;;;13.40;43.36;93899.31;5013556;28;20034;-72
2024/03/31 03:07:35;;;;;;;4.78;1.90;;;;;;;13.38;43.37;93907.63;5013347;28;20454;-72
2024/03/31 03:10:01;;;;;;;12.88;2.95;;;;;;;13.30;43.56;93903.13;5013677;28;20057;-72
2024/03/31 03:12:27;;;;;;;6.38;2.38;;;;;;;13.41;43.59;93906.97;5013498;28;20057;-72
2024/03/31 03:14:53;;;;;;;13.00;2.63;;;;;;;13.31;43.84;93912.72;5012866;28;20068;-72
2024/03/31 03:17:18;;;;;;;8.68;3.05;;;;;;;13.43;44.12;93918.13;5013358;28;20033;-72
2024/03/31 03:19:44;;;;;;;9.80;3.22;;;;;;;13.46;43.38;93912.13;5013049;28;20030;-72
2024/03/31 03:22:09;;;;;;;5.88;2.70;;;;;;;13.51;43.44;93916.47;5013372;28;20029;-71
2024/03/31 03:24:35;;;;;;;9.43;2.97;;;;;;;13.54;43.47;93913.16;5013601;28;20383;-72
2024/03/31 03:27:00;;;;;;;6.18;2.65;;;;;;;13.52;43.39;93918.81;5013146;28;20660;-71
2024/03/31 03:29:25;;;;;;;7.40;2.20;;;;;;;13.59;43.25;93902.31;5012761;28;20124;-72
2024/03/31 03:31:51;;;;;;;7.18;2.20;;;;;;;13.61;43.34;93906.19;5012894;28;20037;-72
2024/03/31 03:34:16;;;;;;;6.10;2.55;;;;;;;13.67;43.00;93901.44;5013349;28;20021;-71
2024/03/31 03:36:41;;;;;;;12.20;2.55;;;;;;;13.58;43.13;93898.81;5012945;28;20546;-72
2024/03/31 03:39:07;;;;;;;8.98;3.05;;;;;;;13.54;43.74;93910.50;5013157;28;20030;-71
2024/03/31 03:41:32;;;;;;;7.63;2.22;;;;;;;13.53;43.78;93915.06;5012820;28;20069;-72
2024/03/31 03:43:58;;;;;;;7.72;2.60;;;;;;;13.53;43.81;93922.28;5012502;28;20053;-72
2024/03/31 03:46:23;;;;;;;8.68;2.60;;;;;;;13.42;43.98;93924.56;5012320;28;20048;-71
2024/03/31 03:48:49;;;;;;;6.03;2.45;;;;;;;13.33;44.05;93905.97;5013131;28;20088;-72
2024/03/31 03:51:14;;;;;;;5.32;2.25;;;;;;;12.89;44.99;93934.09;5012736;28;20033;-72
2024/03/31 03:53:40;;;;;;;5.63;2.42;;;;;;;12.07;47.14;93941.84;5012141;28;20398;-72
2024/03/31 03:56:05;;;;;;;6.97;2.65;;;;;;;11.83;47.89;93940.47;5012718;28;20052;-72
2024/03/31 03:58:30;;;;;;;3.22;2.42;;;;;;;12.43;46.77;93950.16;5012200;28;20048;-72
2024/03/31 04:00:56;;;;;;;4.28;2.13;;;;;;;12.65;45.83;93938.47;5012761;28;20386;-72
2024/03/31 04:03:22;;;;;;;10.38;2.67;;;;;;;12.81;45.56;93948.25;5012278;28;20042;-72
2024/03/31 04:05:54;;;;;;;7.82;1.70;;;;;;;12.96;44.98;93954.16;5012325;28;20041;-72
2024/03/31 04:08:20;;;;;;;5.45;1.95;;;;;;;13.04;44.64;93954.09;5011822;28;20046;-72
2024/03/31 04:10:46;;;;;;;9.63;2.05;;;;;;;13.00;44.67;93955.84;5012366;28;20103;-71
2024/03/31 04:13:11;;;;;;;4.38;2.33;;;;;;;13.05;44.46;93952.22;5012048;28;20021;-71
2024/03/31 04:15:37;;;;;;;9.15;2.38;;;;;;;12.95;44.94;93949.91;5012830;28;20018;-72
2024/03/31 04:18:02;;;;;;;7.35;2.80;;;;;;;13.18;44.07;93956.50;5012232;28;20041;-72
2024/03/31 04:20:27;;;;;;;10.02;2.20;;;;;;;13.21;44.00;93948.63;5012150;28;20498;-72
2024/03/31 04:22:53;;;;;;;8.93;3.08;;;;;;;13.37;43.97;93953.38;5012224;28;20407;-72
2024/03/31 04:25:18;;;;;;;6.00;2.17;;;;;;;13.41;43.82;93947.03;5010472;28;20024;-72
2024/03/31 04:27:44;;;;;;;8.40;2.97;;;;;;;13.39;44.34;93940.47;5012523;28;20053;-71
2024/03/31 04:30:09;;;;;;;6.13;2.03;;;;;;;13.53;44.12;93941.78;5012013;28;20414;-72
2024/03/31 04:32:35;;;;;;;7.60;2.70;;;;;;;13.61;44.00;93948.94;5012140;28;20399;-71
2024/03/31 04:35:00;;;;;;;13.07;2.53;;;;;;;13.43;44.22;93946.72;5012010;28;20682;-72
2024/03/31 04:37:25;;;;;;;7.88;2.75;;;;;;;13.47;44.13;93948.41;5011981;28;20030;-71
2024/03/31 04:39:51;;;;;;;9.68;3.28;;;;;;;13.47;43.92;93953.75;5012007;28;20386;-72
2024/03/31 04:42:16;;;;;;;9.82;3.13;;;;;;;13.44;43.96;93958.97;5011843;28;20037;-71
2024/03/31 04:44:42;;;;;;;9.02;3.05;;;;;;;13.49;44.27;93964.91;5011226;28;20030;-72
2024/03/31 04:47:08;;;;;;;7.57;3.08;;;;;;;13.47;43.98;93991.16;5011528;28;20065;-71
2024/03/31 04:49:33;;;;;;;11.85;3.22;;;;;;;13.24;44.13;93995.28;5011654;28;20041;-71
2024/03/31 04:51:58;;;;;;;9.77;3.00;;;;;;;13.38;44.31;93998.47;5011888;28;20104;-72
2024/03/31 04:54:24;;;;;;;8.15;3.13;;;;;;;13.55;44.24;94002.88;5011727;28;20049;-72
2024/03/31 04:56:49;;;;;;;12.73;3.42;;;;;;;13.54;43.68;94002.13;5011463;28;20065;-72
2024/03/31 04:59:15;;;;;;;12.63;3.03;;;;;;;13.58;44.03;94012.94;5011472;28;20372;-71
2024/03/31 05:01:40;;;;;;;8.73;2.63;;;;;;;13.49;43.91;94009.56;5011162;28;20041;-72
2024/03/31 05:04:06;;;;;;;14.23;2.95;;;;;;;13.56;44.05;94013.25;5011638;28;20415;-72
2024/03/31 05:06:31;;;;;;;10.85;3.55;;;;;;;13.59;43.96;94017.97;5010839;28;20038;-72
2024/03/31 05:08:57;;;;;;;11.77;3.50;;;;;;;13.59;44.00;94011.88;5011461;28;20038;-71
2024/03/31 05:11:22;;;;;;;12.60;2.63;;;;;;;13.84;44.36;94026.13;5011249;28;20663;-72
2024/03/31 05:13:47;;;;;;;8.18;2.50;;;;;;;13.85;44.62;94033.00;5011340;28;20079;-71
2024/03/31 05:16:13;;;;;;;8.27;2.92;;;;;;;13.90;44.85;94030.13;5011505;28;20030;-71
2024/03/31 05:18:38;;;;;;;10.35;2.70;;;;;;;13.97;44.70;94025.84;5011536;28;20650;-72
2024/03/31 05:21:06;;;;;;;9.00;3.08;;;;;;;14.06;44.23;94029.22;5010893;28;20030;-72
2024/03/31 05:23:32;;;;;;;6.63;2.95;;;;;;;14.10;44.50;94023.97;5011217;28;20069;-72
2024/03/31 05:25:57;;;;;;;8.43;3.50;;;;;;;14.11;45.91;94028.22;5010945;28;20060;-72
2024/03/31 05:28:23;;;;;;;4.28;2.50;;;;;;;14.22;46.05;94017.91;5011025;28;20702;-71
2024/03/31 05:30:49;;;;;;;11.30;2.72;;;;;;;14.28;45.65;94016.53;5011562;28;20037;-72
2024/03/31 05:33:15;;;;;;;10.27;2.28;;;;;;;14.51;45.12;94015.84;5011115;28;20038;-72
2024/03/31 05:35:41;;;;;;;12.60;2.33;;;;;;;14.57;44.65;94019.09;5011016;28;20498;-72
2024/03/31 05:38:10;;;;;;;9.18;3.65;;;;;;;14.67;45.04;94015.22;5010973;28;20038;-72
2024/03/31 05:40:37;;;;;;;11.07;2.53;;;;;;;14.79;45.12;94017.91;5011191;28;20048;-72
2024/03/31 05:43:02;;;;;;;15.73;6.15;;;;;;;14.97;43.65;94016.56;5011314;28;20554;-72
2024/03/31 05:45:28;;;;;;;10.73;3.70;;;;;;;15.17;42.98;94012.97;5010883;28;20133;-72
2024/03/31 05:47:53;;;;;;;10.23;3.08;;;;;;;15.17;41.66;94007.63;5010869;28;20077;-72
2024/03/31 05:50:18;;;;;;;12.93;3.40;;;;;;;15.18;42.17;94017.22;5010819;28;20395;-72
2024/03/31 05:52:44;;;;;;;16.05;3.78;;;;;;;15.06;42.05;94032.53;5010784;28;20030;-72
2024/03/31 05:55:09;;;;;;;11.77;3.63;;;;;;;15.13;42.22;94027.38;5009847;28;20058;-70
2024/03/31 05:57:35;;;;;;;10.98;3.60;;;;;;;15.22;41.91;94028.81;5011460;28;20022;-72
2024/03/31 06:00:00;;;;;;;11.15;3.63;;;;;;;15.27;40.94;94022.44;5010742;28;20392;-71
2024/03/31 06:02:25;;;;;;;14.48;3.20;;;;;;;15.26;41.30;94015.53;5010688;28;20037;-72
2024/03/31 06:04:50;;;;;;;9.75;3.25;;;;;;;15.43;41.22;94017.97;5010619;28;20049;-72
2024/03/31 06:07:16;;;;;;;8.48;3.17;;;;;;;15.50;40.46;94022.78;5010837;28;20022;-71
2024/03/31 06:09:45;;;;;;;12.25;3.10;;;;;;;15.63;41.19;94018.97;5011132;28;20391;-72
2024/03/31 06:12:10;;;;;;;12.88;3.42;;;;;;;15.61;40.24;94007.78;5010612;28;20596;-72
2024/03/31 06:14:36;;;;;;;13.57;4.32;;;;;;;15.68;39.72;94016.03;5010979;28;20116;-72
2024/03/31 06:17:04;;;;;;;9.32;2.75;;;;;;;15.69;39.81;94017.59;5012890;28;20522;-72
2024/03/31 06:19:30;;;;;;;8.52;2.00;;;;;;;15.72;39.85;94011.56;5014251;28;20491;-71
2024/03/31 06:21:55;;;;;;;11.40;2.75;;;;;;;15.74;39.85;94006.66;5014775;28;20112;-72
2024/03/31 06:24:21;;;;;;;13.30;2.72;;;;;;;15.94;39.75;94016.38;5014004;28;20273;-72
2024/03/31 06:26:46;;;;;;;11.85;3.40;;;;;;;15.53;39.94;94011.38;5013999;28;20042;-71
2024/03/31 06:29:11;;;;;;;11.32;2.90;;;;;;;15.41;40.32;94009.47;5014304;28;20498;-72
2024/03/31 06:31:39;;;;;;;10.57;3.13;;;;;;;15.43;40.46;94016.06;5013927;28;20030;-71
2024/03/31 06:34:04;;;;;;;14.73;3.58;;;;;;;15.22;40.50;94015.44;5014801;28;20041;-72
2024/03/31 06:36:29;;;;;;;11.32;3.60;;;;;;;15.00;40.97;94013.22;5013723;28;20038;-72
2024/03/31 06:38:55;;;;;;;13.27;2.78;;;;;;;15.09;41.12;94011.22;5013603;28;20061;-71
2024/03/31 06:41:20;;;;;;;11.23;2.70;;;;;;;15.10;41.30;94010.09;5013947;28;20173;-72
2024/03/31 06:43:45;;;;;;;9.32;2.95;;;;;;;15.14;40.88;94021.69;5013770;28;20499;-71
2024/03/31 06:46:11;;;;;;;6.35;2.45;;;;;;;15.16;41.20;94016.75;5012169;28;20510;-71
2024/03/31 06:48:36;;;;;;;10.15;3.22;;;;;;;15.26;40.52;94029.72;5014041;28;20021;-72
2024/03/31 06:51:02;;;;;;;15.10;3.08;;;;;;;15.35;40.16;94013.53;5013444;28;20034;-72
2024/03/31 06:53:27;;;;;;;11.75;2.97;;;;;;;15.49;40.05;94023.91;5013342;28;20156;-72
2024/03/31 06:55:52;;;;;;;7.85;2.53;;;;;;;15.70;40.62;94019.16;5013272;28;20129;-71
2024/03/31 06:58:18;;;;;;;10.88;2.63;;;;;;;16.01;39.83;94026.53;5013252;28;20391;-72
2024/03/31 07:00:43;;;;;;;9.23;3.38;;;;;;;16.07;38.96;94028.66;5013829;28;20014;-72
2024/03/31 07:03:09;;;;;;;15.95;2.58;;;;;;;15.79;39.37;94025.94;5013090;28;20121;-71
2024/03/31 07:05:34;;;;;;;8.77;2.45;;;;;;;15.87;39.65;94026.94;5012748;28;20092;-72
2024/03/31 07:07:59;;;;;;;13.02;3.35;;;;;;;15.87;39.73;94024.25;5013348;28;20053;-72
2024/03/31 07:10:27;;;;;;;15.98;3.72;;;;;;;15.79;39.46;94025.19;5012958;28;20471;-71
2024/03/31 07:12:52;;;;;;;10.93;3.35;;;;;;;16.00;39.21;94031.13;5013380;28;20097;-72
2024/03/31 07:15:17;;;;;;;13.43;2.72;;;;;;;15.87;38.94;94026.94;5013368;28;20168;-72
2024/03/31 07:17:43;;;;;;;6.97;2.00;;;;;;;16.02;38.15;94030.78;5013077;28;20394;-72
2024/03/31 07:20:09;;;;;;;10.65;2.10;;;;;;;15.83;38.88;94028.72;5013348;28;20257;-72
2024/03/31 07:22:34;;;;;;;14.55;2.78;;;;;;;15.90;39.02;94020.88;5013081;28;20380;-71
2024/03/31 07:25:00;;;;;;;5.25;2.45;;;;;;;16.06;38.55;94034.34;5013174;28;20431;-72
2024/03/31 07:27:26;;;;;;;10.77;2.85;;;;;;;16.14;37.99;94034.19;5012203;28;20645;-72
2024/03/31 07:29:51;;;;;;;12.23;2.90;;;;;;;16.10;38.33;94032.53;5011046;28;20037;-72
2024/03/31 07:32:17;;;;;;;6.45;2.17;;;;;;;16.21;38.40;94034.41;5011381;28;20095;-72
2024/03/31 07:34:42;;;;;;;9.90;2.85;;;;;;;16.23;37.90;94031.38;5012590;28;20100;-72
2024/03/31 07:37:07;;;;;;;13.07;2.78;;;;;;;16.21;38.28;94022.88;5012697;28;20218;-72
2024/03/31 07:39:35;;;;;;;9.77;2.63;;;;;;;16.40;37.67;94030.28;5012151;28;20131;-72
2024/03/31 07:42:00;;;;;;;6.63;2.03;;;;;;;16.51;36.53;94031.34;5012399;28;20040;-72
2024/03/31 07:44:26;;;;;;;8.23;3.05;;;;;;;16.52;37.01;94033.72;5012500;28;20030;-72
2024/03/31 07:46:51;;;;;;;10.45;2.65;;;;;;;16.38;37.34;94027.19;5011939;28;20465;-72
2024/03/31 07:49:17;;;;;;;11.90;2.70;;;;;;;16.52;37.65;94030.25;5012461;28;20025;-71
2024/03/31 07:51:42;;;;;;;9.93;2.80;;;;;;;16.56;36.90;94023.84;5012373;28;20025;-72
2024/03/31 07:54:07;;;;;;;6.90;2.22;;;;;;;16.70;36.70;94024.19;5011895;28;20384;-72
2024/03/31 07:56:33;;;;;;;9.95;2.33;;;;;;;16.64;37.24;94009.44;5011735;28;20055;-72
2024/03/31 07:58:58;;;;;;;11.15;2.53;;;;;;;16.95;37.08;94018.63;5011885;28;20034;-72
2024/03/31 08:01:23;;;;;;;8.48;2.10;;;;;;;17.12;36.71;94016.34;5011614;28;20022;-72
2024/03/31 08:03:49;;;;;;;11.00;3.03;;;;;;;17.34;36.24;94024.94;5012295;28;20025;-72
2024/03/31 08:06:14;;;;;;;11.43;3.25;;;;;;;17.26;35.87;94007.09;5011694;28;20086;-72
2024/03/31 08:08:40;;;;;;;7.93;2.45;;;;;;;17.22;35.92;94011.59;5010770;28;20100;-72
2024/03/31 08:11:05;;;;;;;8.68;3.15;;;;;;;17.07;36.46;94013.94;5011642;28;20042;-72
2024/03/31 08:13:30;;;;;;;14.25;4.05;;;;;;;16.88;36.71;94008.50;5011676;28;20026;-71
2024/03/31 08:15:56;;;;;;;8.05;3.10;;;;;;;17.04;36.22;94011.97;5012356;28;20151;-72
2024/03/31 08:18:21;;;;;;;15.00;2.58;;;;;;;16.99;35.66;94004.16;5012035;28;20386;-72
2024/03/31 08:20:48;;;;;;;6.68;2.17;;;;;;;16.97;36.37;94011.78;5011660;28;20048;-72
2024/03/31 08:23:14;;;;;;;10.93;2.30;;;;;;;17.10;35.68;94013.25;5011446;28;20038;-72
2024/03/31 08:25:40;;;;;;;8.85;1.75;;;;;;;17.44;36.77;94009.06;5011500;28;20088;-71
2024/03/31 08:28:06;;;;;;;9.75;2.63;;;;;;;17.67;37.10;94000.28;5011322;28;20049;-72
2024/03/31 08:30:31;;;;;;;8.93;2.78;;;;;;;17.76;35.48;94007.03;5010519;28;20038;-72
2024/03/31 08:32:57;;;;;;;12.55;2.53;;;;;;;17.86;35.29;93995.69;5011199;28;20541;-72
2024/03/31 08:35:22;;;;;;;9.27;2.30;;;;;;;17.87;34.86;93989.19;5011488;28;20030;-72
2024/03/31 08:37:48;;;;;;;7.72;2.88;;;;;;;17.87;35.04;93994.56;5011490;28;20042;-72
2024/03/31 08:40:14;;;;;;;11.63;3.00;;;;;;;17.88;34.92;93996.16;5011481;28;20434;-72
2024/03/31 08:42:44;;;;;;;8.07;2.60;;;;;;;17.73;35.71;93994.28;5012441;28;20021;-72
2024/03/31 08:45:13;;;;;;;10.63;2.30;;;;;;;17.64;35.77;93998.31;5011308;28;20104;-72
2024/03/31 08:47:42;;;;;;;7.15;2.47;;;;;;;17.55;35.36;93998.53;5010705;28;20419;-72
2024/03/31 08:50:09;;;;;;;8.40;2.50;;;;;;;17.62;34.63;94001.34;5011402;28;20042;-72
2024/03/31 08:52:34;;;;;;;9.00;3.17;;;;;;;17.71;35.06;93991.16;5011367;28;20495;-72
2024/03/31 08:55:01;;;;;;;10.88;2.92;;;;;;;17.81;35.31;93998.69;5011711;28;20033;-72
2024/03/31 08:57:27;;;;;;;9.85;2.80;;;;;;;17.71;35.17;93985.00;5010346;28;20547;-72
2024/03/31 08:59:52;;;;;;;13.52;3.15;;;;;;;17.72;35.20;93991.94;5010464;28;20038;-72
2024/03/31 09:02:22;;;;;;;13.10;2.60;;;;;;;17.82;36.22;93996.78;5010817;28;20092;-72
2024/03/31 09:04:48;;;;;;;10.75;2.72;;;;;;;17.82;35.84;93991.38;5010796;28;20042;-72
2024/03/31 09:07:14;;;;;;;8.82;2.80;;;;;;;17.95;35.31;93990.91;5009916;28;20076;-71
2024/03/31 09:09:42;;;;;;;10.00;2.72;;;;;;;18.07;34.81;93986.53;5010932;28;20444;-72
2024/03/31 09:12:09;;;;;;;10.27;2.75;;;;;;;17.94;34.46;93972.44;5010675;28;20042;-72
2024/03/31 09:14:37;;;;;;;8.23;3.30;;;;;;;17.95;36.73;93979.38;5010354;28;20296;-72
2024/03/31 09:17:03;;;;;;;7.55;2.00;;;;;;;18.15;35.16;93977.44;5010991;28;20527;-72
2024/03/31 09:19:30;;;;;;;12.63;2.28;;;;;;;18.37;34.12;93985.56;5011364;28;20108;-72
2024/03/31 09:21:55;;;;;;;7.38;1.90;;;;;;;18.35;34.55;93982.44;5011266;28;20057;-72
2024/03/31 09:24:21;;;;;;;13.43;3.25;;;;;;;18.39;34.49;93966.34;5010668;28;20065;-72
2024/03/31 09:26:46;;;;;;;8.50;2.20;;;;;;;18.29;34.72;93972.31;5011439;28;20061;-72
2024/03/31 09:29:12;;;;;;;15.18;2.65;;;;;;;18.31;34.55;93968.16;5010896;28;20045;-72
2024/03/31 09:31:37;;;;;;;6.03;2.42;;;;;;;18.30;34.32;93963.09;5011280;28;20450;-72
2024/03/31 09:34:04;;;;;;;8.63;2.22;;;;;;;18.25;33.86;93966.88;5011141;28;20057;-72
2024/03/31 09:36:29;;;;;;;7.38;2.03;;;;;;;18.40;33.67;93949.06;5010860;28;20054;-72
2024/03/31 09:38:55;;;;;;;8.63;2.67;;;;;;;18.52;34.30;93954.28;5010929;28;20061;-72
2024/03/31 09:41:21;;;;;;;10.73;2.58;;;;;;;18.52;33.63;93959.66;5011059;28;20038;-72
2024/03/31 09:43:46;;;;;;;9.30;3.33;;;;;;;18.53;33.33;93955.81;5011045;28;20549;-72
2024/03/31 09:46:15;;;;;;;11.82;2.40;;;;;;;18.52;32.71;93951.59;5010560;28;20026;-71
2024/03/31 09:48:45;;;;;;;9.13;2.20;;;;;;;18.56;33.09;93954.31;5011198;28;20494;-72
2024/03/31 09:51:20;;;;;;;10.32;2.35;;;;;;;18.60;32.51;93950.56;5011911;28;20037;-72
2024/03/31 09:54:06;;;;;;;9.45;2.90;;;;;;;18.71;33.65;93948.84;5014862;28;20517;-72
2024/03/31 09:56:40;;;;;;;8.75;2.33;;;;;;;18.83;33.16;93953.25;5014552;28;20096;-72
2024/03/31 09:59:09;;;;;;;8.85;2.20;;;;;;;18.85;33.21;93937.50;5014161;28;20034;-72
2024/03/31 10:01:38;;;;;;;14.18;2.75;;;;;;;19.01;32.20;93945.44;5014101;28;20029;-72
2024/03/31 10:04:31;;;;;;;12.00;2.60;;;;;;;19.12;32.46;93938.28;5014350;28;20434;-72
2024/03/31 10:06:58;;;;;;;17.30;3.08;;;;;;;19.27;32.97;93934.63;5014812;28;20122;-72
2024/03/31 10:09:24;;;;;;;8.05;2.80;;;;;;;19.39;32.50;93933.66;5014208;28;20034;-71
2024/03/31 10:11:52;;;;;;;7.55;2.10;;;;;;;19.31;32.74;93936.25;5014239;28;20049;-72
2024/03/31 10:14:19;;;;;;;7.22;2.20;;;;;;;19.20;32.05;93923.78;5014432;28;20044;-72
2024/03/31 10:16:47;;;;;;;11.68;2.17;;;;;;;19.39;32.01;93923.66;5014614;28;20068;-72
2024/03/31 10:19:14;;;;;;;9.07;2.92;;;;;;;19.25;32.35;93909.97;5014304;28;20506;-71
2024/03/31 10:21:41;;;;;;;11.15;2.65;;;;;;;19.29;32.05;93924.28;5014274;28;20045;-72
2024/03/31 10:24:09;;;;;;;10.27;2.70;;;;;;;19.31;32.51;93930.09;5013959;28;20569;-72
2024/03/31 10:26:35;;;;;;;11.40;3.08;;;;;;;19.33;33.45;93912.41;5014457;28;20049;-72
2024/03/31 10:29:01;;;;;;;8.43;2.90;;;;;;;19.50;31.93;93921.13;5012847;28;20376;-72
2024/03/31 10:31:26;;;;;;;14.02;2.55;;;;;;;19.61;31.85;93912.00;5014237;28;20072;-72
2024/03/31 10:33:52;;;;;;;5.38;2.42;;;;;;;19.59;31.64;93914.31;5014201;28;20025;-72
2024/03/31 10:36:19;;;;;;;13.32;2.72;;;;;;;19.75;31.95;93917.56;5013870;28;20030;-72
2024/03/31 10:38:44;;;;;;;6.28;2.60;;;;;;;20.06;31.35;93915.56;5013212;28;20121;-72
2024/03/31 10:41:11;;;;;;;11.23;2.88;;;;;;;20.17;31.18;93924.59;5013905;28;20120;-72
2024/03/31 10:43:38;;;;;;;14.32;4.35;;;;;;;20.24;30.53;93927.34;5014009;28;20034;-72
2024/03/31 10:46:03;;;;;;;11.00;3.08;;;;;;;20.37;30.63;93936.75;5014122;28;20025;-72
2024/03/31 10:48:29;;;;;;;11.43;2.88;;;;;;;20.35;30.65;93927.47;5013715;28;20458;-72
2024/03/31 10:50:55;;;;;;;6.93;2.10;;;;;;;20.19;30.57;93930.38;5012716;28;20113;-72
2024/03/31 10:53:25;;;;;;;7.60;2.20;;;;;;;20.28;30.89;93932.81;5013305;28;20030;-72
2024/03/31 10:55:51;;;;;;;8.85;2.35;;;;;;;20.43;30.06;93918.28;5013487;28;20025;-72
2024/03/31 10:58:16;;;;;;;10.98;3.20;;;;;;;20.48;30.34;93920.66;5013938;28;20021;-71
2024/03/31 11:00:43;;;;;;;14.40;3.70;;;;;;;20.60;29.83;93923.84;5014349;28;20360;-72
2024/03/31 11:03:10;;;;;;;10.23;2.53;;;;;;;20.69;30.44;93930.84;5012380;28;20053;-72
2024/03/31 11:05:38;;;;;;;11.02;2.85;;;;;;;20.75;nan;93932.84;5013576;28;20117;-72
2024/03/31 11:08:04;;;;;;;13.95;3.03;;;;;;;20.78;32.26;93939.41;5028251;28;20037;-72
2024/03/31 11:10:31;;;;;;;13.90;3.17;;;;;;;20.84;30.33;93921.69;5013044;28;20410;-72
2024/03/31 11:12:56;;;;;;;10.02;2.33;;;;;;;20.82;31.80;93922.09;5013778;28;20026;-72
2024/03/31 11:15:22;;;;;;;11.23;3.20;;;;;;;20.92;30.26;93917.94;5013150;28;20034;-72
2024/03/31 11:17:48;;;;;;;10.15;2.53;;;;;;;20.75;30.95;93907.75;5012818;28;20077;-72
2024/03/31 11:20:15;;;;;;;16.48;3.90;;;;;;;20.37;31.73;93900.88;5012704;28;20034;-72
2024/03/31 11:22:41;;;;;;;17.33;4.40;;;;;;;20.54;31.81;93909.13;5013156;28;20030;-71